Time;durP1;ratioP1;P1;durP2;ratioP2;P2;SDS_P1;SDS_P2;PMS_P1;PMS_P2;Temp;Humidity;BMP_temperature;BMP_pressure;BME280_temperature;BME280_humidity;BME280_pressure;Samples;Min_cycle;Max_cycle;Signal;HPM_P1;HPM_P2
2022/05/15 00:01:11;;;;;;;7.10;4.05;;;487.30;1561.60;;;;;;5098235;28;20419;-83
2022/05/15 00:03:38;;;;;;;7.47;3.63;;;487.30;1561.60;;;;;;5089364;28;20012;-84
2022/05/15 00:06:05;;;;;;;8.23;3.47;;;487.30;1587.20;;;;;;5085304;28;20055;-84
2022/05/15 00:08:33;;;;;;;9.82;3.78;;;487.20;1587.20;;;;;;5081141;28;20016;-81
2022/05/15 00:10:59;;;;;;;8.63;4.05;;;487.10;1587.20;;;;;;5078308;28;20474;-85
2022/05/15 00:13:26;;;;;;;9.93;4.30;;;487.10;1587.20;;;;;;5084086;28;20024;-83
2022/05/15 00:15:52;;;;;;;12.02;4.00;;;487.10;1612.80;;;;;;5086457;28;20180;-80
2022/05/15 00:18:20;;;;;;;13.20;4.05;;;487.10;1612.80;;;;;;5085854;28;20095;-85
2022/05/15 00:20:47;;;;;;;12.80;4.65;;;487.10;1587.20;;;;;;5084866;28;20024;-86
2022/05/15 00:23:13;;;;;;;9.40;4.43;;;487.10;1587.20;;;;;;5084910;28;20024;-84
2022/05/15 00:25:39;;;;;;;9.70;4.00;;;487.30;1587.20;;;;;;5084536;28;20020;-84
2022/05/15 00:28:07;;;;;;;9.70;3.65;;;487.30;1587.20;;;;;;5084121;28;20032;-84
2022/05/15 00:30:34;;;;;;;8.60;4.35;;;487.30;1561.60;;;;;;5089440;28;20063;-84
2022/05/15 00:33:00;;;;;;;7.40;4.03;;;487.30;1561.60;;;;;;5083644;28;20024;-83
2022/05/15 00:35:27;;;;;;;10.32;4.18;;;487.30;1561.60;;;;;;5086482;28;20070;-83
2022/05/15 00:37:52;;;;;;;12.15;4.88;;;487.30;1561.60;;;;;;5085615;28;20460;-84
2022/05/15 00:40:20;;;;;;;11.07;3.85;;;487.10;1587.20;;;;;;5085335;28;20026;-81
2022/05/15 00:42:47;;;;;;;13.93;4.20;;;487.10;1587.20;;;;;;5087360;28;20020;-84
2022/05/15 00:45:14;;;;;;;11.55;4.22;;;487.10;1612.80;;;;;;5104241;28;20024;-83
2022/05/15 00:47:41;;;;;;;11.93;4.60;;;487.00;1612.80;;;;;;5086786;28;20043;-82
2022/05/15 00:50:12;;;;;;;7.15;4.00;;;487.00;1638.40;;;;;;5083524;28;20052;-82
2022/05/15 00:52:42;;;;;;;17.55;5.28;;;486.80;1638.40;;;;;;5101893;28;20024;-83
2022/05/15 00:55:24;;;;;;;9.52;4.90;;;486.80;1638.40;;;;;;5086028;28;20043;-80
2022/05/15 00:57:56;;;;;;;11.30;4.38;;;486.80;1638.40;;;;;;5086415;28;20533;-83
2022/05/15 01:00:25;;;;;;;10.25;3.90;;;486.80;1638.40;;;;;;5085689;28;20040;-84
2022/05/15 01:03:13;;;;;;;9.60;4.78;;;486.90;1638.40;;;;;;5086400;28;20047;-84
2022/05/15 01:05:42;;;;;;;16.67;5.30;;;487.00;1612.80;;;;;;5081692;28;20027;-85
2022/05/15 01:08:08;;;;;;;7.45;4.10;;;487.00;1612.80;;;;;;5083874;28;20031;-84
2022/05/15 01:10:37;;;;;;;14.30;4.30;;;487.00;1612.80;;;;;;5086372;28;20028;-82
2022/05/15 01:13:04;;;;;;;13.50;4.10;;;486.90;1612.80;;;;;;5086687;28;20552;-80
2022/05/15 01:15:30;;;;;;;13.00;4.38;;;487.00;1612.80;;;;;;5083434;28;20054;-84
2022/05/15 01:17:56;;;;;;;9.15;4.15;;;487.00;1612.80;;;;;;5086573;28;20119;-80
2022/05/15 01:20:27;;;;;;;11.68;4.80;;;487.00;1612.80;;;;;;5087150;28;20012;-83
2022/05/15 01:22:53;;;;;;;13.98;4.93;;;487.00;1612.80;;;;;;5107653;28;20012;-80
2022/05/15 01:25:22;;;;;;;10.25;4.25;;;487.00;1612.80;;;;;;5103837;28;20073;-81
2022/05/15 01:28:11;;;;;;;14.00;4.55;;;487.00;1638.40;;;;;;5087891;28;20020;-85
2022/05/15 01:30:41;;;;;;;7.88;4.68;;;486.80;1638.40;;;;;;5108543;28;20146;-83
2022/05/15 01:33:07;;;;;;;15.00;4.57;;;486.70;1638.40;;;;;;5105845;28;20032;-85
2022/05/15 01:35:33;;;;;;;10.45;4.45;;;486.80;1664.00;;;;;;5086961;28;20032;-84
2022/05/15 01:37:59;;;;;;;11.13;5.57;;;486.80;1638.40;;;;;;5090847;28;20476;-81
2022/05/15 01:40:25;;;;;;;12.48;4.68;;;486.80;1664.00;;;;;;5087468;28;20020;-81
2022/05/15 01:42:50;;;;;;;14.63;5.47;;;486.70;1664.00;;;;;;5084986;28;20036;-85
2022/05/15 01:45:16;;;;;;;12.35;5.10;;;486.70;1664.00;;;;;;5089284;28;20434;-82
2022/05/15 01:47:42;;;;;;;11.48;4.50;;;486.70;1664.00;;;;;;5088438;28;20380;-80
2022/05/15 01:50:10;;;;;;;14.75;4.95;;;486.60;1689.60;;;;;;5087633;28;20022;-80
2022/05/15 01:52:36;;;;;;;9.95;4.70;;;486.60;1689.60;;;;;;5084909;28;20024;-84
2022/05/15 01:55:03;;;;;;;12.85;5.20;;;486.50;1689.60;;;;;;5105396;28;20024;-81
2022/05/15 01:57:29;;;;;;;10.32;4.80;;;486.50;1715.20;;;;;;5087483;28;20092;-80
2022/05/15 01:59:54;;;;;;;12.90;5.65;;;486.50;1715.20;;;;;;5107844;28;20459;-85
2022/05/15 02:02:20;;;;;;;13.43;5.63;;;486.40;1715.20;;;;;;5085729;28;20531;-80
2022/05/15 02:04:46;;;;;;;24.10;5.47;;;461.70;1740.80;;;;;;5080622;28;20024;-85
2022/05/15 02:07:12;;;;;;;12.02;5.18;;;461.70;1740.80;;;;;;5080631;28;20031;-83
2022/05/15 02:09:37;;;;;;;10.30;5.20;;;461.50;1766.40;;;;;;5089325;28;20027;-85
2022/05/15 02:12:04;;;;;;;14.13;5.13;;;461.50;1766.40;;;;;;5105510;28;20408;-85
2022/05/15 02:14:30;;;;;;;10.98;5.38;;;461.50;1792.00;;;;;;5089674;28;20497;-84
2022/05/15 02:16:56;;;;;;;12.57;5.22;;;461.50;1792.00;;;;;;5083217;28;20020;-85
2022/05/15 02:19:22;;;;;;;11.73;5.65;;;461.40;1792.00;;;;;;5087864;28;20485;-84
2022/05/15 02:21:47;;;;;;;10.48;5.07;;;461.30;1817.60;;;;;;5089719;28;20026;-85
2022/05/15 02:24:14;;;;;;;12.35;4.97;;;461.20;1843.20;;;;;;5086799;28;20019;-85
2022/05/15 02:26:40;;;;;;;12.70;5.53;;;461.10;1843.20;;;;;;5087924;28;20471;-81
2022/05/15 02:29:07;;;;;;;9.15;5.78;;;461.20;1843.20;;;;;;5088187;28;20031;-78
2022/05/15 02:31:33;;;;;;;11.80;5.03;;;461.00;1868.80;;;;;;5083504;28;20035;-83
2022/05/15 02:34:00;;;;;;;13.88;5.88;;;461.00;1868.80;;;;;;5086481;28;20016;-85
2022/05/15 02:36:27;;;;;;;11.35;5.45;;;461.00;1894.40;;;;;;5086992;28;20024;-86
2022/05/15 02:38:53;;;;;;;22.15;5.13;;;461.00;1868.80;;;;;;5089136;28;20019;-80
2022/05/15 02:41:18;;;;;;;11.40;5.22;;;461.10;1868.80;;;;;;5083788;28;20027;-81
2022/05/15 02:43:45;;;;;;;16.55;4.70;;;461.10;1868.80;;;;;;5087753;28;20111;-84
2022/05/15 02:46:10;;;;;;;11.45;5.25;;;461.10;1868.80;;;;;;5085675;28;20028;-83
2022/05/15 02:51:21;;;;;;;7.70;4.88;;;461.00;1868.80;;;;;;5096857;28;20042;-85
2022/05/15 02:53:46;;;;;;;12.43;5.18;;;461.00;1868.80;;;;;;5105491;28;20024;-84
2022/05/15 02:56:18;;;;;;;10.27;5.00;;;461.00;1868.80;;;;;;5087518;28;20135;-80
2022/05/15 02:58:44;;;;;;;7.10;5.07;;;460.90;1894.40;;;;;;5084595;28;20085;-84
2022/05/15 03:01:10;;;;;;;11.35;4.93;;;460.90;1894.40;;;;;;5093871;28;20143;-84
2022/05/15 03:03:36;;;;;;;11.90;5.03;;;460.90;1894.40;;;;;;5097433;28;20485;-84
2022/05/15 03:06:04;;;;;;;11.70;5.07;;;460.90;1894.40;;;;;;5096636;28;20036;-80
2022/05/15 03:08:36;;;;;;;10.77;5.40;;;460.90;1894.40;;;;;;5097013;28;20020;-85
2022/05/15 03:11:02;;;;;;;10.82;5.13;;;460.90;1894.40;;;;;;5097050;28;20040;-85
2022/05/15 03:13:28;;;;;;;11.43;5.35;;;460.90;1894.40;;;;;;5096777;28;20024;-82
2022/05/15 03:15:54;;;;;;;8.13;4.97;;;460.90;1894.40;;;;;;5096882;28;20028;-79
2022/05/15 03:18:20;;;;;;;12.23;5.80;;;460.80;1894.40;;;;;;5114999;28;20460;-85
2022/05/15 03:20:45;;;;;;;18.60;6.00;;;460.80;1894.40;;;;;;5115202;28;20016;-80
2022/05/15 03:23:11;;;;;;;13.68;6.05;;;460.80;1894.40;;;;;;5096652;28;20073;-85
2022/05/15 03:25:37;;;;;;;14.80;5.13;;;436.10;1894.40;;;;;;5114859;28;20519;-84
2022/05/15 03:28:09;;;;;;;13.57;5.65;;;460.80;1894.40;;;;;;5114965;28;20015;-85
2022/05/15 03:30:35;;;;;;;13.25;4.85;;;436.10;1894.40;;;;;;5096720;28;20190;-84
2022/05/15 03:33:02;;;;;;;10.35;5.25;;;436.10;1894.40;;;;;;5111814;28;20026;-80
2022/05/15 03:35:27;;;;;;;7.88;4.85;;;435.80;1894.40;;;;;;5096594;28;20153;-85
2022/05/15 03:37:53;;;;;;;15.02;5.50;;;436.10;1894.40;;;;;;5095491;28;20103;-81
2022/05/15 03:40:19;;;;;;;10.48;4.80;;;436.10;1894.40;;;;;;5096469;28;20023;-80
2022/05/15 03:42:44;;;;;;;8.40;4.93;;;436.10;1868.80;;;;;;5095083;28;20609;-85
2022/05/15 03:45:11;;;;;;;10.32;5.65;;;435.90;1920.00;;;;;;5114193;28;20051;-84
2022/05/15 03:47:44;;;;;;;16.85;5.70;;;435.80;1971.20;;;;;;5114749;28;20228;-83
2022/05/15 03:50:10;;;;;;;11.98;6.07;;;435.70;1996.80;;;;;;5112921;28;20020;-85
2022/05/15 03:52:35;;;;;;;9.07;5.25;;;435.50;2022.40;;;;;;5096314;28;20023;-84
2022/05/15 03:55:02;;;;;;;16.10;5.88;;;435.50;2022.40;;;;;;5112920;28;20028;-84
2022/05/15 03:57:28;;;;;;;10.75;5.35;;;435.40;2048.00;;;;;;5114170;28;20151;-84
2022/05/15 03:59:53;;;;;;;12.40;5.32;;;435.50;2048.00;;;;;;5111479;28;20027;-80
2022/05/15 04:02:19;;;;;;;9.63;6.05;;;435.50;2048.00;;;;;;5075740;28;20047;-83
2022/05/15 04:04:45;;;;;;;10.25;5.80;;;435.60;2048.00;;;;;;5075943;28;20043;-82
2022/05/15 04:07:10;;;;;;;10.60;5.45;;;435.40;2073.60;;;;;;5075796;28;20115;-82
2022/05/15 04:09:40;;;;;;;11.93;5.43;;;435.30;2099.20;;;;;;5093898;28;20028;-83
2022/05/15 04:12:07;;;;;;;8.93;5.65;;;435.30;2124.80;;;;;;5075250;28;20127;-86
2022/05/15 04:14:33;;;;;;;13.23;5.47;;;435.30;2150.40;;;;;;5075400;28;20070;-84
2022/05/15 04:16:59;;;;;;;13.55;6.00;;;410.50;2176.00;;;;;;5075736;28;20028;-82
2022/05/15 04:19:25;;;;;;;18.17;5.65;;;435.20;2176.00;;;;;;5075399;28;20107;-84
2022/05/15 04:21:51;;;;;;;12.82;4.93;;;435.20;2201.60;;;;;;5075710;28;20028;-85
2022/05/15 04:24:18;;;;;;;11.88;5.35;;;435.20;2201.60;;;;;;5093484;28;20056;-83
2022/05/15 04:26:46;;;;;;;11.43;6.20;;;435.20;2201.60;;;;;;5075754;28;20020;-84
2022/05/15 04:29:12;;;;;;;10.68;6.22;;;435.20;2201.60;;;;;;5075251;28;20361;-80
2022/05/15 04:31:38;;;;;;;10.43;5.80;;;435.20;2201.60;;;;;;5093589;28;20035;-84
2022/05/15 04:34:05;;;;;;;10.23;4.97;;;435.20;2227.20;;;;;;5070022;28;20055;-84
2022/05/15 04:36:31;;;;;;;14.98;5.00;;;435.20;2227.20;;;;;;5075471;28;20046;-85
2022/05/15 04:38:58;;;;;;;13.43;5.35;;;435.20;2252.80;;;;;;5093340;28;20091;-84
2022/05/15 04:41:24;;;;;;;8.63;5.00;;;435.30;2252.80;;;;;;5075402;28;20031;-84
2022/05/15 04:43:50;;;;;;;12.02;5.10;;;435.30;2278.40;;;;;;5075606;28;20067;-79
2022/05/15 04:46:16;;;;;;;13.50;6.78;;;435.30;2278.40;;;;;;5075193;28;20052;-80
2022/05/15 04:48:42;;;;;;;13.43;5.60;;;435.40;2278.40;;;;;;5075293;28;20439;-83
2022/05/15 04:51:08;;;;;;;10.75;5.97;;;435.40;2278.40;;;;;;5075073;28;20028;-81
2022/05/15 04:53:33;;;;;;;10.27;6.07;;;435.40;2278.40;;;;;;5092901;28;20099;-84
2022/05/15 04:56:00;;;;;;;10.50;5.55;;;435.30;2304.00;;;;;;5074292;28;20028;-85
2022/05/15 04:58:27;;;;;;;14.82;6.22;;;435.40;2278.40;;;;;;5072755;28;20073;-84
2022/05/15 05:00:52;;;;;;;10.65;6.05;;;435.50;2278.40;;;;;;5085069;28;20048;-82
2022/05/15 05:03:18;;;;;;;14.43;6.13;;;435.60;2278.40;;;;;;5113632;28;20023;-83
2022/05/15 05:05:44;;;;;;;11.43;6.72;;;435.70;2278.40;;;;;;5094963;28;20535;-80
2022/05/15 05:08:12;;;;;;;17.10;6.93;;;435.70;2304.00;;;;;;5112831;28;20012;-82
2022/05/15 05:10:38;;;;;;;10.57;6.20;;;435.80;2304.00;;;;;;5095024;28;20027;-80
2022/05/15 05:13:05;;;;;;;13.32;5.95;;;436.00;2329.60;;;;;;5094699;28;20028;-81
2022/05/15 05:15:30;;;;;;;11.32;6.40;;;436.10;2304.00;;;;;;5094412;28;20042;-83
2022/05/15 05:17:57;;;;;;;10.30;6.28;;;460.80;2278.40;;;;;;5094500;28;20472;-80
2022/05/15 05:20:24;;;;;;;10.75;6.03;;;460.90;2252.80;;;;;;5112738;28;20024;-81
2022/05/15 05:22:50;;;;;;;11.48;5.80;;;461.00;2252.80;;;;;;5095155;28;20024;-79
2022/05/15 05:25:16;;;;;;;11.23;5.28;;;461.10;2227.20;;;;;;5112692;28;20810;-79
2022/05/15 05:27:43;;;;;;;15.55;6.40;;;461.40;2176.00;;;;;;5094052;28;20040;-79
2022/05/15 05:30:22;;;;;;;10.95;5.75;;;461.50;2201.60;;;;;;5091723;28;20031;-78
2022/05/15 05:32:48;;;;;;;13.88;6.20;;;461.50;2176.00;;;;;;5092112;28;20453;-79
2022/05/15 05:35:15;;;;;;;14.75;6.10;;;461.70;2150.40;;;;;;5093336;28;20035;-82
2022/05/15 05:37:41;;;;;;;13.20;6.05;;;461.70;2124.80;;;;;;5094603;28;20031;-81
2022/05/15 05:40:08;;;;;;;12.90;5.72;;;486.50;2124.80;;;;;;5094314;28;20032;-79
2022/05/15 05:42:34;;;;;;;11.68;5.85;;;486.50;2099.20;;;;;;5094551;28;20031;-79
2022/05/15 05:45:02;;;;;;;16.48;5.28;;;486.50;2099.20;;;;;;5093983;28;20463;-79
2022/05/15 05:47:29;;;;;;;8.65;5.53;;;486.70;2099.20;;;;;;5093984;28;20027;-79
2022/05/15 05:49:56;;;;;;;13.57;5.70;;;486.70;2073.60;;;;;;5094552;28;20051;-79
2022/05/15 05:52:23;;;;;;;10.52;5.70;;;486.80;2073.60;;;;;;5112036;28;20031;-79
2022/05/15 05:54:50;;;;;;;12.32;6.03;;;487.00;2048.00;;;;;;5091019;28;20023;-79
2022/05/15 05:57:16;;;;;;;10.35;5.00;;;486.90;2048.00;;;;;;5094008;28;20115;-79
2022/05/15 05:59:42;;;;;;;10.00;5.22;;;487.10;2099.20;;;;;;5094484;28;20034;-79
2022/05/15 06:02:08;;;;;;;10.88;5.10;;;487.20;2048.00;;;;;;5082051;28;20028;-82
2022/05/15 06:04:40;;;;;;;14.27;5.20;;;487.30;1945.60;;;;;;5082004;28;20024;-79
2022/05/15 06:07:08;;;;;;;8.85;5.07;;;487.30;1945.60;;;;;;5105061;28;20098;-80
2022/05/15 06:09:37;;;;;;;13.45;5.90;;;512.00;1945.60;;;;;;5088457;28;20114;-79
2022/05/15 06:12:04;;;;;;;11.02;4.88;;;512.20;1920.00;;;;;;5106224;28;20498;-80
2022/05/15 06:14:29;;;;;;;13.38;5.13;;;512.40;1894.40;;;;;;5080711;28;20024;-81
2022/05/15 06:16:55;;;;;;;10.23;5.05;;;512.50;1843.20;;;;;;5086744;28;20023;-80
2022/05/15 06:19:21;;;;;;;10.35;4.95;;;512.50;1843.20;;;;;;5105474;28;20015;-83
2022/05/15 06:21:46;;;;;;;9.68;4.43;;;512.50;1843.20;;;;;;5088859;28;20024;-80
2022/05/15 06:24:12;;;;;;;9.90;4.53;;;512.60;1817.60;;;;;;5086470;28;20025;-80
2022/05/15 06:26:38;;;;;;;9.98;4.75;;;512.80;1792.00;;;;;;5087358;28;20023;-80
2022/05/15 06:29:04;;;;;;;12.40;4.97;;;512.90;1817.60;;;;;;5087636;28;20035;-80
2022/05/15 06:31:29;;;;;;;10.73;4.95;;;512.90;1817.60;;;;;;5086294;28;20024;-80
2022/05/15 06:33:55;;;;;;;10.27;4.68;;;537.60;1817.60;;;;;;5086705;28;20419;-80
2022/05/15 06:36:21;;;;;;;7.40;4.55;;;537.70;1817.60;;;;;;5086830;28;20374;-79
2022/05/15 06:38:46;;;;;;;6.40;3.97;;;537.80;1817.60;;;;;;5088318;28;20083;-78
2022/05/15 06:41:12;;;;;;;15.20;5.18;;;538.00;1792.00;;;;;;5085115;28;20031;-79
2022/05/15 06:43:38;;;;;;;11.15;4.50;;;538.00;1766.40;;;;;;5086905;28;20024;-79
2022/05/15 06:46:04;;;;;;;7.53;3.45;;;538.10;1766.40;;;;;;5086142;28;20034;-78
2022/05/15 06:48:33;;;;;;;10.38;4.05;;;538.20;1766.40;;;;;;5085945;28;20020;-79
2022/05/15 06:50:59;;;;;;;8.57;3.83;;;538.30;1740.80;;;;;;5086775;28;20028;-79
2022/05/15 06:53:25;;;;;;;6.38;3.83;;;538.40;1740.80;;;;;;5087403;28;20020;-79
2022/05/15 06:58:35;;;;;;;10.68;3.80;;;563.20;1740.80;;;;;;5103446;28;20018;-78
2022/05/15 07:01:01;;;;;;;10.68;4.10;;;563.40;1740.80;;;;;;5105107;28;20040;-80
2022/05/15 07:03:28;;;;;;;8.43;4.53;;;563.50;1689.60;;;;;;5106721;28;20012;-80
2022/05/15 07:05:53;;;;;;;11.00;3.70;;;563.60;1689.60;;;;;;5087783;28;20387;-80
2022/05/15 07:08:19;;;;;;;11.27;3.67;;;563.70;1638.40;;;;;;5084817;28;20015;-80
2022/05/15 07:10:45;;;;;;;9.65;4.03;;;563.80;1664.00;;;;;;5087227;28;20116;-80
2022/05/15 07:13:11;;;;;;;6.60;3.33;;;563.90;1664.00;;;;;;5084958;28;20024;-79
2022/05/15 07:15:37;;;;;;;9.45;3.72;;;564.10;1612.80;;;;;;5106350;28;20026;-80
2022/05/15 07:18:06;;;;;;;9.20;3.53;;;564.10;1587.20;;;;;;5085468;28;20024;-79
2022/05/15 07:20:32;;;;;;;5.78;3.40;;;588.80;1638.40;;;;;;5100360;28;20051;-81
2022/05/15 07:22:58;;;;;;;6.75;2.85;;;589.50;1587.20;;;;;;5084736;28;20034;-79
2022/05/15 07:25:25;;;;;;;8.48;4.07;;;589.30;1561.60;;;;;;5086035;28;20024;-79
2022/05/15 07:27:51;;;;;;;7.65;2.95;;;589.50;1561.60;;;;;;5084894;28;20056;-80
2022/05/15 07:30:17;;;;;;;12.77;3.42;;;589.50;1484.80;;;;;;5089132;28;20051;-80
2022/05/15 07:32:43;;;;;;;16.05;3.65;;;589.60;1459.20;;;;;;5087089;28;20038;-79
2022/05/15 07:35:09;;;;;;;8.35;3.20;;;589.70;1459.20;;;;;;5094452;28;20020;-80
2022/05/15 07:37:34;;;;;;;5.90;2.78;;;589.70;1433.60;;;;;;5094275;28;20026;-77
2022/05/15 07:40:00;;;;;;;5.78;2.63;;;614.50;1408.00;;;;;;5093903;28;20023;-78
2022/05/15 07:42:26;;;;;;;11.75;3.30;;;614.50;1382.40;;;;;;5094233;28;20081;-78
2022/05/15 07:44:54;;;;;;;6.20;2.60;;;614.70;1382.40;;;;;;5076019;28;20483;-79
2022/05/15 07:47:20;;;;;;;7.05;2.53;;;614.80;1382.40;;;;;;5075807;28;20029;-78
2022/05/15 07:49:45;;;;;;;7.78;2.50;;;614.80;1356.80;;;;;;5075877;28;20032;-78
2022/05/15 07:52:11;;;;;;;8.02;3.00;;;614.90;1331.20;;;;;;5075407;28;20487;-77
2022/05/15 07:54:37;;;;;;;7.93;4.05;;;614.90;1305.60;;;;;;5093976;28;20073;-78
2022/05/15 07:57:05;;;;;;;10.95;3.72;;;614.90;1305.60;;;;;;5075424;28;20052;-78
2022/05/15 07:59:31;;;;;;;7.88;3.08;;;615.00;1280.00;;;;;;5093676;28;20024;-78
2022/05/15 08:01:59;;;;;;;4.90;2.50;;;615.00;1305.60;;;;;;5093333;28;20093;-78
2022/05/15 08:04:25;;;;;;;12.52;3.00;;;615.10;1305.60;;;;;;5075364;28;20395;-76
2022/05/15 08:09:35;;;;;;;7.18;2.63;;;615.20;1280.00;;;;;;5090843;28;20023;-76
2022/05/15 08:12:01;;;;;;;6.63;2.55;;;615.30;1280.00;;;;;;5092915;28;20028;-79
2022/05/15 08:14:29;;;;;;;7.18;3.00;;;615.30;1305.60;;;;;;5093187;28;20077;-79
2022/05/15 08:16:55;;;;;;;9.48;3.80;;;615.30;1254.40;;;;;;5075590;28;20480;-82
2022/05/15 08:24:52;;;;;;;7.53;3.10;;;640.00;1280.00;;;;;;5095105;28;20059;-85
2022/05/15 08:27:18;;;;;;;18.65;3.67;;;640.10;1280.00;;;;;;5075849;28;20028;-84
2022/05/15 08:29:44;;;;;;;8.30;2.45;;;640.10;1280.00;;;;;;5076083;28;20157;-84
2022/05/15 08:32:10;;;;;;;11.05;2.83;;;640.10;1280.00;;;;;;5076228;28;20119;-88
2022/05/15 08:34:36;;;;;;;4.57;2.50;;;640.20;1280.00;;;;;;5075578;28;20456;-86
2022/05/15 08:37:03;;;;;;;6.40;3.08;;;640.40;1280.00;;;;;;5075644;28;20108;-80
2022/05/15 08:39:30;;;;;;;6.85;2.63;;;640.30;1228.80;;;;;;5075779;28;20020;-84
2022/05/15 08:42:28;;;;;;;9.40;2.65;;;640.40;1228.80;;;;;;5075897;28;20042;-87
2022/05/15 08:45:00;;;;;;;8.70;3.22;;;640.50;1254.40;;;;;;5075758;28;20047;-87
2022/05/15 08:47:47;;;;;;;12.02;3.65;;;640.60;1254.40;;;;;;5075459;28;20045;-80
2022/05/15 08:50:15;;;;;;;9.88;2.60;;;640.60;1254.40;;;;;;5075293;28;20107;-84
2022/05/15 08:52:49;;;;;;;6.05;2.55;;;640.60;1280.00;;;;;;5092874;28;20030;-82
2022/05/15 08:55:24;;;;;;;7.05;2.75;;;640.60;1228.80;;;;;;5073756;28;20533;-82
2022/05/15 08:58:02;;;;;;;10.93;2.92;;;640.70;1228.80;;;;;;5075781;28;20484;-83
2022/05/15 09:00:42;;;;;;;5.38;2.53;;;640.60;1228.80;;;;;;5082357;28;20040;-82
2022/05/15 09:03:17;;;;;;;13.43;3.65;;;640.70;1228.80;;;;;;5095777;28;20020;-86
2022/05/15 09:06:05;;;;;;;7.88;3.25;;;640.70;1228.80;;;;;;5095679;28;20023;-86
2022/05/15 09:09:08;;;;;;;11.65;2.75;;;640.90;1228.80;;;;;;5095814;28;20024;-80
2022/05/15 09:11:45;;;;;;;11.77;2.80;;;640.90;1203.20;;;;;;5113509;28;20035;-80
2022/05/15 09:14:11;;;;;;;9.88;3.08;;;665.60;1254.40;;;;;;5095226;28;20024;-80
2022/05/15 09:16:42;;;;;;;6.43;2.67;;;665.60;1203.20;;;;;;5114784;28;20099;-88
2022/05/15 09:19:08;;;;;;;18.40;2.70;;;665.70;1254.40;;;;;;5097007;28;20019;-86
2022/05/15 09:21:35;;;;;;;6.97;2.50;;;665.70;1203.20;;;;;;5095638;28;20020;-79
2022/05/15 09:24:19;;;;;;;7.63;2.45;;;665.80;1228.80;;;;;;5094198;28;20022;-89
2022/05/15 09:26:47;;;;;;;10.52;2.65;;;666.10;1228.80;;;;;;5092511;28;20023;-83
2022/05/15 09:29:26;;;;;;;7.47;2.33;;;666.10;1177.60;;;;;;5094921;28;20042;-83
2022/05/15 09:31:53;;;;;;;8.20;2.75;;;666.30;1177.60;;;;;;5110344;28;20126;-83
2022/05/15 09:34:31;;;;;;;12.73;2.38;;;666.50;1152.00;;;;;;5093769;28;20032;-84
2022/05/15 09:39:46;;;;;;;5.05;2.30;;;691.40;1100.80;;;;;;5113248;28;20072;-80
2022/05/15 09:45:20;;;;;;;4.80;2.30;;;691.60;1075.20;;;;;;5115973;28;20502;-83
2022/05/15 09:48:01;;;;;;;10.35;2.75;;;691.60;1049.60;;;;;;5113226;28;20479;-84
2022/05/15 09:51:04;;;;;;;7.68;2.50;;;691.80;1049.60;;;;;;5116480;28;20122;-81
2022/05/15 09:53:30;;;;;;;4.95;2.38;;;692.10;1049.60;;;;;;5112940;28;20036;-82
2022/05/15 09:56:01;;;;;;;6.57;2.33;;;716.80;1100.80;;;;;;5116520;28;20483;-82
2022/05/15 09:58:37;;;;;;;8.93;2.70;;;716.90;1075.20;;;;;;5097753;28;20431;-83
2022/05/15 10:01:23;;;;;;;10.88;2.50;;;717.10;1024.00;;;;;;5096391;28;20036;-81
2022/05/15 10:03:54;;;;;;;9.07;2.25;;;717.20;1024.00;;;;;;5114528;28;20024;-81
2022/05/15 10:06:23;;;;;;;4.78;1.92;;;717.10;998.40;;;;;;5116315;28;20041;-89
2022/05/15 10:09:30;;;;;;;6.18;2.00;;;717.10;998.40;;;;;;5097835;28;20023;-80
2022/05/15 10:12:03;;;;;;;5.40;2.53;;;717.30;998.40;;;;;;4994833;28;20049;-84
2022/05/15 10:14:34;;;;;;;9.30;2.78;;;717.50;972.80;;;;;;4994546;28;20034;-81
2022/05/15 10:17:02;;;;;;;5.95;3.15;;;717.70;972.80;;;;;;4994847;28;20136;-85
2022/05/15 10:19:49;;;;;;;5.70;1.98;;;742.50;998.40;;;;;;4998967;28;20037;-80
2022/05/15 10:22:34;;;;;;;8.55;2.20;;;742.60;998.40;;;;;;5001573;28;20129;-81
2022/05/15 10:25:12;;;;;;;8.32;2.38;;;742.80;972.80;;;;;;5011293;28;20088;-80
2022/05/15 10:27:41;;;;;;;8.30;2.05;;;742.90;947.20;;;;;;4997250;28;20038;-79
2022/05/15 10:30:21;;;;;;;5.05;2.17;;;742.90;947.20;;;;;;4996702;28;20030;-81
2022/05/15 10:32:59;;;;;;;5.47;2.03;;;742.90;947.20;;;;;;5014278;28;20394;-82
2022/05/15 10:35:41;;;;;;;4.20;2.00;;;742.90;947.20;;;;;;4996646;28;20064;-91
2022/05/15 10:38:27;;;;;;;4.00;2.20;;;742.90;947.20;;;;;;5014267;28;20029;-83
2022/05/15 10:41:15;;;;;;;8.52;2.47;;;743.00;972.80;;;;;;5018323;28;20446;-86
2022/05/15 10:44:00;;;;;;;4.78;2.30;;;743.10;947.20;;;;;;4997905;28;20517;-89
2022/05/15 10:46:43;;;;;;;7.40;1.98;;;743.20;921.60;;;;;;5094601;28;20522;-88
2022/05/15 10:49:44;;;;;;;4.43;1.90;;;743.30;947.20;;;;;;5095401;28;20024;-83
2022/05/15 10:52:31;;;;;;;4.47;1.90;;;743.30;921.60;;;;;;5111346;28;20055;-83
2022/05/15 10:58:36;;;;;;;5.05;2.60;;;768.10;896.00;;;;;;5115842;28;20023;-83
2022/05/15 11:01:17;;;;;;;7.50;2.40;;;768.20;896.00;;;;;;5097294;28;20043;-83
2022/05/15 11:04:04;;;;;;;7.32;2.20;;;768.10;896.00;;;;;;5116483;28;20487;-81
2022/05/15 11:06:36;;;;;;;7.05;1.80;;;768.10;896.00;;;;;;5115652;28;20440;-80
2022/05/15 11:09:24;;;;;;;6.85;2.00;;;768.20;870.40;;;;;;5115494;28;20031;-81
2022/05/15 11:12:17;;;;;;;4.28;1.63;;;768.40;870.40;;;;;;5089387;28;20542;-85
2022/05/15 11:15:10;;;;;;;4.55;2.03;;;768.50;844.80;;;;;;5115322;28;20044;-79
2022/05/15 11:17:59;;;;;;;8.43;2.78;;;768.60;844.80;;;;;;5115223;28;20371;-81
2022/05/15 11:20:39;;;;;;;11.93;2.35;;;768.60;921.60;;;;;;5096800;28;20173;-79
2022/05/15 11:23:13;;;;;;;4.50;2.53;;;768.80;870.40;;;;;;5114452;28;20024;-79
2022/05/15 11:26:12;;;;;;;9.85;2.28;;;768.90;896.00;;;;;;5114735;28;20019;-78
2022/05/15 11:28:45;;;;;;;10.25;2.10;;;768.70;819.20;;;;;;5051755;28;20054;-78
2022/05/15 11:31:36;;;;;;;6.05;2.35;;;768.80;819.20;;;;;;5051405;28;20021;-79
2022/05/15 11:34:07;;;;;;;6.88;2.00;;;768.70;819.20;;;;;;4992584;28;20130;-81
2022/05/15 11:36:38;;;;;;;8.75;2.70;;;768.60;819.20;;;;;;4992171;28;20100;-80
2022/05/15 11:39:15;;;;;;;3.72;2.20;;;768.90;819.20;;;;;;4975540;28;20038;-79
2022/05/15 11:41:44;;;;;;;5.32;2.42;;;768.80;819.20;;;;;;4990376;28;20037;-79
2022/05/15 11:44:19;;;;;;;4.50;2.40;;;768.80;844.80;;;;;;4991924;28;20089;-80
2022/05/15 11:46:45;;;;;;;6.63;2.45;;;793.60;844.80;;;;;;4975385;28;20494;-80
2022/05/15 11:49:31;;;;;;;4.78;2.25;;;793.80;844.80;;;;;;4992222;28;20030;-79
2022/05/15 11:52:13;;;;;;;8.48;2.40;;;793.90;819.20;;;;;;4987132;28;20498;-80
2022/05/15 11:54:49;;;;;;;4.72;1.92;;;793.90;819.20;;;;;;4988131;28;20105;-79
2022/05/15 11:57:42;;;;;;;7.85;2.20;;;794.00;819.20;;;;;;4987052;28;20125;-79
2022/05/15 12:00:21;;;;;;;4.45;2.08;;;793.70;844.80;;;;;;4991985;28;20502;-80
2022/05/15 12:02:52;;;;;;;4.43;2.55;;;794.00;819.20;;;;;;4992173;28;20073;-80
2022/05/15 12:05:59;;;;;;;3.90;2.22;;;794.00;819.20;;;;;;5003539;28;20058;-80
2022/05/15 12:08:29;;;;;;;5.75;2.40;;;794.00;819.20;;;;;;5011385;28;20034;-79
2022/05/15 12:11:12;;;;;;;7.80;2.50;;;794.00;870.40;;;;;;5048891;28;20040;-80
2022/05/15 12:13:43;;;;;;;5.82;2.10;;;794.10;870.40;;;;;;5084776;28;20028;-80
2022/05/15 12:16:33;;;;;;;3.88;2.08;;;794.30;844.80;;;;;;5113741;28;20023;-81
2022/05/15 12:19:15;;;;;;;5.35;2.45;;;794.20;896.00;;;;;;5111488;28;20031;-79
2022/05/15 12:21:48;;;;;;;6.85;2.55;;;794.20;896.00;;;;;;5093436;28;20031;-81
2022/05/15 12:24:29;;;;;;;9.52;3.10;;;794.20;896.00;;;;;;5092111;28;20824;-81
2022/05/15 12:26:59;;;;;;;7.60;2.80;;;794.30;844.80;;;;;;5092625;28;20383;-79
2022/05/15 12:29:40;;;;;;;34.83;3.78;;;794.40;896.00;;;;;;5113143;28;20149;-79
2022/05/15 12:32:19;;;;;;;6.93;2.30;;;794.30;896.00;;;;;;5110885;28;20206;-81
2022/05/15 12:34:49;;;;;;;7.13;2.03;;;794.00;844.80;;;;;;5110787;28;20056;-80
2022/05/15 12:37:25;;;;;;;6.00;2.13;;;794.00;870.40;;;;;;5091970;28;20383;-79
2022/05/15 12:39:53;;;;;;;7.05;2.20;;;793.90;870.40;;;;;;5094407;28;20011;-80
2022/05/15 12:42:22;;;;;;;7.88;2.60;;;794.00;921.60;;;;;;5112222;28;20039;-79
2022/05/15 12:45:01;;;;;;;5.75;1.90;;;794.20;896.00;;;;;;5112749;28;20023;-79
2022/05/15 12:47:31;;;;;;;6.55;2.72;;;794.20;819.20;;;;;;5095735;28;20031;-79
2022/05/15 12:50:00;;;;;;;6.28;2.90;;;794.40;819.20;;;;;;5109924;28;20353;-79
2022/05/15 12:52:29;;;;;;;5.35;2.47;;;794.40;819.20;;;;;;5102827;28;20058;-79